createdAt,value
2022-10-30T00:01:25.897Z,8.10
2022-10-30T00:03:52.508Z,7.00
2022-10-30T00:06:19.099Z,7.50
2022-10-30T00:08:45.690Z,7.70
2022-10-30T00:11:13.761Z,5.97
2022-10-30T00:13:42.326Z,7.70
2022-10-30T00:16:09.534Z,7.47
2022-10-30T00:18:37.714Z,6.30
2022-10-30T00:21:09.237Z,5.23
2022-10-30T00:23:35.852Z,7.00
2022-10-30T00:26:04.414Z,6.20
2022-10-30T00:28:31.158Z,5.37
2022-10-30T00:31:04.744Z,7.00
2022-10-30T00:33:31.533Z,9.00
2022-10-30T00:35:58.428Z,11.53
2022-10-30T00:38:24.995Z,5.00
2022-10-30T00:40:51.592Z,6.83
2022-10-30T00:43:33.588Z,6.60
2022-10-30T00:46:06.051Z,5.10
2022-10-30T00:48:32.747Z,8.30
2022-10-30T00:51:01.073Z,6.30
2022-10-30T00:53:29.087Z,5.47
2022-10-30T00:55:59.105Z,5.37
2022-10-30T00:58:32.584Z,6.20
2022-10-30T01:01:04.181Z,6.77
2022-10-30T01:03:32.088Z,5.23
2022-10-30T01:06:04.248Z,8.50
2022-10-30T01:08:31.527Z,6.43
2022-10-30T01:11:02.245Z,7.50
2022-10-30T01:13:30.057Z,10.40
2022-10-30T01:16:36.035Z,6.97
2022-10-30T01:19:27.154Z,10.40
2022-10-30T01:22:14.425Z,7.80
2022-10-30T01:25:07.174Z,8.67
2022-10-30T01:27:46.876Z,8.23
2022-10-30T01:30:43.197Z,5.77
2022-10-30T01:33:24.857Z,6.97
2022-10-30T01:36:01.267Z,6.67
2022-10-30T01:38:36.025Z,5.57
2022-10-30T01:41:02.545Z,9.30
2022-10-30T01:43:29.158Z,5.30
2022-10-30T01:46:18.947Z,6.40
2022-10-30T01:49:11.548Z,5.60
2022-10-30T01:52:02.335Z,6.27
2022-10-30T01:54:50.653Z,9.50
2022-10-30T01:57:41.090Z,5.47
2022-10-30T02:00:11.032Z,5.77
2022-10-30T02:02:37.957Z,7.70
2022-10-30T02:05:07.578Z,5.80
2022-10-30T02:07:36.232Z,6.00
2022-10-30T02:10:03.927Z,10.80
2022-10-30T02:12:31.485Z,4.90
2022-10-30T02:15:00.510Z,8.20
2022-10-30T02:17:28.175Z,8.50
2022-10-30T02:19:54.781Z,6.03
2022-10-30T02:22:21.606Z,5.33
2022-10-30T02:24:48.277Z,8.27
2022-10-30T02:27:14.857Z,6.73
2022-10-30T02:29:41.448Z,4.40
2022-10-30T02:32:07.988Z,8.37
2022-10-30T02:34:34.532Z,7.23
2022-10-30T02:37:01.168Z,7.33
2022-10-30T02:39:27.788Z,6.10
2022-10-30T02:41:54.396Z,7.20
2022-10-30T02:44:21.089Z,5.13
2022-10-30T02:46:47.649Z,4.90
2022-10-30T02:49:14.194Z,5.90
2022-10-30T02:51:40.786Z,8.23
2022-10-30T02:54:07.445Z,6.10
2022-10-30T02:56:34.027Z,6.00
2022-10-30T02:59:00.877Z,5.50
2022-10-30T03:01:27.541Z,6.27
2022-10-30T03:03:54.181Z,7.37
2022-10-30T03:06:20.740Z,7.20
2022-10-30T03:08:47.297Z,9.73
2022-10-30T03:11:16.603Z,7.30
2022-10-30T03:13:44.757Z,4.47
2022-10-30T03:16:14.831Z,4.07
2022-10-30T03:18:42.008Z,3.93
2022-10-30T03:21:10.924Z,8.13
2022-10-30T03:23:38.008Z,5.80
2022-10-30T03:26:05.034Z,6.30
2022-10-30T03:28:32.821Z,6.83
2022-10-30T03:31:05.533Z,6.10
2022-10-30T03:33:32.629Z,7.20
2022-10-30T03:35:59.851Z,10.47
2022-10-30T03:38:26.768Z,3.90
2022-10-30T03:40:53.631Z,4.50
2022-10-30T03:43:20.786Z,9.00
2022-10-30T03:45:52.712Z,9.00
2022-10-30T03:48:21.038Z,5.17
2022-10-30T03:50:47.843Z,5.13
2022-10-30T03:53:14.749Z,7.67
2022-10-30T03:55:42.077Z,6.53
2022-10-30T03:58:08.804Z,5.00
2022-10-30T04:00:36.364Z,5.03
2022-10-30T04:03:07.452Z,5.97
2022-10-30T04:05:34.481Z,4.53
2022-10-30T04:08:03.793Z,7.90
2022-10-30T04:10:30.389Z,5.60
2022-10-30T04:13:05.389Z,9.30
2022-10-30T04:15:32.197Z,7.43
2022-10-30T04:17:59.004Z,5.20
2022-10-30T04:20:26.327Z,6.63
2022-10-30T04:23:04.515Z,6.13
2022-10-30T04:25:33.540Z,7.93
2022-10-30T04:28:00.867Z,5.77
2022-10-30T04:30:27.892Z,7.90
2022-10-30T04:32:56.412Z,5.83
2022-10-30T04:35:27.788Z,6.27
2022-10-30T04:37:55.065Z,5.30
2022-10-30T04:40:23.245Z,7.27
2022-10-30T04:42:50.004Z,4.40
2022-10-30T04:45:17.050Z,6.90
2022-10-30T04:47:44.879Z,12.80
2022-10-30T04:50:11.895Z,4.93
2022-10-30T04:52:38.787Z,5.00
2022-10-30T04:55:06.524Z,5.77
2022-10-30T04:57:33.178Z,5.20
2022-10-30T04:59:59.829Z,6.20
2022-10-30T05:02:26.783Z,8.47
2022-10-30T05:04:53.462Z,5.07
2022-10-30T05:07:20.724Z,4.10
2022-10-30T05:09:47.261Z,5.87
2022-10-30T05:12:13.867Z,5.60
2022-10-30T05:14:40.389Z,4.07
2022-10-30T05:17:06.961Z,4.90
2022-10-30T05:19:33.555Z,9.83
2022-10-30T05:22:00.091Z,6.03
2022-10-30T05:24:26.633Z,6.20
2022-10-30T05:26:53.192Z,5.70
2022-10-30T05:29:19.817Z,5.00
2022-10-30T05:31:46.359Z,6.50
2022-10-30T05:34:12.907Z,6.73
2022-10-30T05:36:39.509Z,5.13
2022-10-30T05:39:06.128Z,6.30
2022-10-30T05:41:32.729Z,6.37
2022-10-30T05:43:59.334Z,9.97
2022-10-30T05:46:26.013Z,5.47
2022-10-30T05:48:52.534Z,5.60
2022-10-30T05:51:19.086Z,5.00
2022-10-30T05:53:48.678Z,5.60
2022-10-30T05:56:15.237Z,3.80
2022-10-30T05:58:41.887Z,5.53
2022-10-30T06:01:09.140Z,5.53
2022-10-30T06:03:35.699Z,5.30
2022-10-30T06:06:02.408Z,6.40
2022-10-30T06:08:28.961Z,9.97
2022-10-30T06:10:55.834Z,5.40
2022-10-30T06:13:22.532Z,8.63
2022-10-30T06:15:49.073Z,5.33
2022-10-30T06:18:15.661Z,4.87
2022-10-30T06:20:42.219Z,6.20
2022-10-30T06:23:10.407Z,6.80
2022-10-30T06:25:41.042Z,6.20
2022-10-30T06:28:10.087Z,4.40
2022-10-30T06:30:36.605Z,6.10
2022-10-30T06:33:04.905Z,4.90
2022-10-30T06:35:31.864Z,7.33
2022-10-30T06:38:02.722Z,8.23
2022-10-30T06:40:29.968Z,5.90
2022-10-30T06:42:57.485Z,5.93
2022-10-30T06:45:24.910Z,7.20
2022-10-30T06:47:52.112Z,6.33
2022-10-30T06:50:20.576Z,5.33
2022-10-30T06:52:48.160Z,5.90
2022-10-30T06:55:14.804Z,7.20
2022-10-30T06:57:41.576Z,8.00
2022-10-30T07:00:08.960Z,7.90
2022-10-30T07:02:35.567Z,5.13
2022-10-30T07:05:02.893Z,8.40
2022-10-30T07:07:29.670Z,7.17
2022-10-30T07:09:56.258Z,7.73
2022-10-30T07:12:22.836Z,4.83
2022-10-30T07:14:49.403Z,7.37
2022-10-30T07:17:16.001Z,5.70
2022-10-30T07:19:42.552Z,6.70
2022-10-30T07:22:09.091Z,5.30
2022-10-30T07:24:35.624Z,5.27
2022-10-30T07:27:02.208Z,5.83
2022-10-30T07:29:28.744Z,4.80
2022-10-30T07:32:02.957Z,6.53
2022-10-30T07:34:30.354Z,5.10
2022-10-30T07:36:56.891Z,4.57
2022-10-30T07:39:23.422Z,4.93
2022-10-30T07:41:50.567Z,9.60
2022-10-30T07:44:17.424Z,4.13
2022-10-30T07:46:44.186Z,4.27
2022-10-30T07:49:10.839Z,9.60
2022-10-30T07:51:38.514Z,6.73
2022-10-30T07:54:05.135Z,8.10
2022-10-30T07:56:31.852Z,5.70
2022-10-30T07:58:58.399Z,5.20
2022-10-30T08:01:25.189Z,5.10
2022-10-30T08:03:51.878Z,5.37
2022-10-30T08:06:21.463Z,5.67
2022-10-30T08:08:54.210Z,6.60
2022-10-30T08:11:21.351Z,5.87
2022-10-30T08:13:47.893Z,7.30
2022-10-30T08:16:14.642Z,8.63
2022-10-30T08:18:42.475Z,6.60
2022-10-30T08:21:09.738Z,6.63
2022-10-30T08:23:36.497Z,5.40
2022-10-30T08:26:03.052Z,6.00
2022-10-30T08:28:32.657Z,8.03
2022-10-30T08:31:00.590Z,6.50
2022-10-30T08:33:27.296Z,5.30
2022-10-30T08:35:56.959Z,5.80
2022-10-30T08:38:23.910Z,4.83
2022-10-30T08:40:50.537Z,8.53
2022-10-30T08:43:17.420Z,7.13
2022-10-30T08:45:44.089Z,6.40
2022-10-30T08:48:13.033Z,7.43
2022-10-30T08:50:40.029Z,4.87
2022-10-30T08:53:08.498Z,6.47
2022-10-30T08:55:35.889Z,4.20
2022-10-30T08:58:03.204Z,9.40
2022-10-30T09:00:29.870Z,4.40
2022-10-30T09:02:56.867Z,7.50
2022-10-30T09:05:23.760Z,5.73
2022-10-30T09:07:55.043Z,5.47
2022-10-30T09:10:21.608Z,6.80
2022-10-30T09:12:48.276Z,4.00
2022-10-30T09:15:14.938Z,5.10
2022-10-30T09:17:41.613Z,6.23
2022-10-30T09:20:08.623Z,4.70
2022-10-30T09:22:39.564Z,7.20
2022-10-30T09:25:06.347Z,5.47
2022-10-30T09:27:36.893Z,5.53
2022-10-30T09:30:03.810Z,5.03
2022-10-30T09:32:30.401Z,7.70
2022-10-30T09:34:56.944Z,7.93
2022-10-30T09:37:24.253Z,7.73
2022-10-30T09:39:50.894Z,6.10
2022-10-30T09:42:48.260Z,8.00
2022-10-30T09:45:33.293Z,3.70
2022-10-30T09:48:19.357Z,4.23
2022-10-30T09:51:13.363Z,4.47
2022-10-30T09:53:54.811Z,11.23
2022-10-30T09:56:31.183Z,5.73
2022-10-30T09:59:16.539Z,6.10
2022-10-30T10:01:56.084Z,6.83
2022-10-30T10:04:44.321Z,5.47
2022-10-30T10:07:21.290Z,4.83
2022-10-30T10:09:56.754Z,4.70
2022-10-30T10:12:27.819Z,3.87
2022-10-30T10:14:55.855Z,4.63
2022-10-30T10:17:34.416Z,6.43
2022-10-30T10:20:02.545Z,7.43
2022-10-30T10:22:45.863Z,6.30
2022-10-30T10:25:15.413Z,6.93
2022-10-30T10:28:04.331Z,4.07
2022-10-30T10:31:08.630Z,4.03
2022-10-30T10:33:57.854Z,4.03
2022-10-30T10:36:46.291Z,5.00
2022-10-30T10:39:40.416Z,4.73
2022-10-30T10:42:43.146Z,4.50
2022-10-30T10:45:24.546Z,5.23
2022-10-30T10:50:50.769Z,5.07
2022-10-30T10:53:26.640Z,4.67
2022-10-30T10:55:57.162Z,5.53
2022-10-30T10:58:39.999Z,3.70
2022-10-30T11:01:13.982Z,8.37
2022-10-30T11:03:43.381Z,6.53
2022-10-30T11:06:22.614Z,5.17
2022-10-30T11:08:50.372Z,10.30
2022-10-30T11:11:16.925Z,4.80
2022-10-30T11:13:45.369Z,5.73
2022-10-30T11:16:37.781Z,5.77
2022-10-30T11:19:08.960Z,4.10
2022-10-30T11:21:44.656Z,5.10
2022-10-30T11:24:33.593Z,7.60
2022-10-30T11:27:25.951Z,5.03
2022-10-30T11:30:05.762Z,3.77
2022-10-30T11:32:34.346Z,10.10
2022-10-30T11:35:10.126Z,4.83
2022-10-30T11:37:39.193Z,6.90
2022-10-30T11:40:26.122Z,7.90
2022-10-30T11:43:03.108Z,5.53
2022-10-30T11:45:34.063Z,4.60
2022-10-30T11:48:03.023Z,3.40
2022-10-30T11:50:32.237Z,9.20
2022-10-30T11:53:01.897Z,5.10
2022-10-30T11:55:46.589Z,5.40
2022-10-30T11:58:30.516Z,4.97
2022-10-30T12:01:01.520Z,5.40
2022-10-30T12:03:30.462Z,5.20
2022-10-30T12:06:16.671Z,9.70
2022-10-30T12:08:59.321Z,6.00
2022-10-30T12:11:34.514Z,6.27
2022-10-30T12:14:02.173Z,6.80
2022-10-30T12:16:30.067Z,4.50
2022-10-30T12:19:01.435Z,6.53
2022-10-30T12:21:31.574Z,5.33
2022-10-30T12:24:06.650Z,4.47
2022-10-30T12:26:35.820Z,4.60
2022-10-30T12:29:07.457Z,6.90
2022-10-30T12:31:35.827Z,5.37
2022-10-30T12:34:15.578Z,4.70
2022-10-30T12:36:51.184Z,7.07
2022-10-30T12:39:32.763Z,4.77
2022-10-30T12:42:01.223Z,5.23
2022-10-30T12:44:43.133Z,5.20
2022-10-30T12:47:35.698Z,5.83
2022-10-30T12:50:10.926Z,8.90
2022-10-30T12:52:49.346Z,5.53
2022-10-30T12:55:36.928Z,6.17
2022-10-30T12:58:15.124Z,3.77
2022-10-30T13:01:07.271Z,4.10
2022-10-30T13:03:46.131Z,3.90
2022-10-30T13:06:18.731Z,5.23
2022-10-30T13:09:06.095Z,4.10
2022-10-30T13:11:59.211Z,5.67
2022-10-30T13:14:42.156Z,7.27
2022-10-30T13:17:12.823Z,8.20
2022-10-30T13:19:45.419Z,4.53
2022-10-30T13:22:37.825Z,5.47
2022-10-30T13:25:19.788Z,4.30
2022-10-30T13:27:56.893Z,4.73
2022-10-30T13:30:28.619Z,5.10
2022-10-30T13:33:17.985Z,3.50
2022-10-30T13:35:56.144Z,5.30
2022-10-30T13:38:51.916Z,5.67
2022-10-30T13:41:27.550Z,7.33
2022-10-30T13:44:20.999Z,4.33
2022-10-30T13:47:30.766Z,5.03
2022-10-30T13:50:39.981Z,4.43
2022-10-30T13:53:15.632Z,6.20
2022-10-30T13:55:43.654Z,4.70
2022-10-30T13:58:22.615Z,4.20
2022-10-30T14:01:09.340Z,7.17
2022-10-30T14:04:05.175Z,9.60
2022-10-30T14:06:42.213Z,4.40
2022-10-30T14:09:22.297Z,5.00
2022-10-30T14:11:48.877Z,4.50
2022-10-30T14:14:30.721Z,4.33
2022-10-30T14:17:23.716Z,4.03
2022-10-30T14:20:10.585Z,5.43
2022-10-30T14:22:40.993Z,5.03
2022-10-30T14:25:15.599Z,4.53
2022-10-30T14:27:42.486Z,5.83
2022-10-30T14:30:19.601Z,12.83
2022-10-30T14:32:51.543Z,9.20
2022-10-30T14:35:32.900Z,4.30
2022-10-30T14:38:16.534Z,7.47
2022-10-30T14:41:01.488Z,4.23
2022-10-30T14:43:40.273Z,5.57
2022-10-30T14:46:28.385Z,5.27
2022-10-30T14:49:01.878Z,5.23
2022-10-30T14:51:45.059Z,3.63
2022-10-30T14:54:28.848Z,2.90
2022-10-30T14:56:55.409Z,6.43
2022-10-30T14:59:33.818Z,4.07
2022-10-30T15:02:03.754Z,4.37
2022-10-30T15:05:09.933Z,4.07
2022-10-30T15:07:48.585Z,7.60
2022-10-30T15:10:36.527Z,5.20
2022-10-30T15:13:22.871Z,5.40
2022-10-30T15:16:05.599Z,5.53
2022-10-30T15:18:32.538Z,7.33
2022-10-30T15:21:07.329Z,4.43
2022-10-30T15:23:41.342Z,3.97
2022-10-30T15:26:16.997Z,5.23
2022-10-30T15:28:43.768Z,3.60
2022-10-30T15:31:24.864Z,4.00
2022-10-30T15:33:54.084Z,4.90
2022-10-30T15:36:23.514Z,4.60
2022-10-30T15:39:22.335Z,3.80
2022-10-30T15:42:01.604Z,3.23
2022-10-30T15:44:31.894Z,2.53
2022-10-30T15:47:02.165Z,5.83
2022-10-30T15:49:41.393Z,4.57
2022-10-30T15:52:19.315Z,5.50
2022-10-30T15:54:48.241Z,2.80
2022-10-30T16:03:13.222Z,3.30
2022-10-30T16:05:39.815Z,4.43
2022-10-30T16:08:23.878Z,3.90
2022-10-30T16:10:54.029Z,4.53
2022-10-30T16:13:30.141Z,5.60
2022-10-30T16:15:57.115Z,3.17
2022-10-30T16:18:35.747Z,5.87
2022-10-30T16:21:08.041Z,6.23
2022-10-30T16:23:39.912Z,4.60
2022-10-30T16:26:06.609Z,3.70
2022-10-30T16:28:35.849Z,4.60
2022-10-30T16:31:06.202Z,4.03
2022-10-30T16:33:35.153Z,5.80
2022-10-30T16:36:05.044Z,4.83
2022-10-30T16:38:36.742Z,6.23
2022-10-30T16:41:13.275Z,5.90
2022-10-30T16:43:59.284Z,4.13
2022-10-30T16:46:37.756Z,3.33
2022-10-30T16:49:12.280Z,8.20
2022-10-30T16:51:40.265Z,8.27
2022-10-30T16:54:17.681Z,3.83
2022-10-30T16:56:47.395Z,3.70
2022-10-30T16:59:20.165Z,4.57
2022-10-30T17:01:53.805Z,5.70
2022-10-30T17:04:20.744Z,5.77
2022-10-30T17:06:47.608Z,4.67
2022-10-30T17:09:25.741Z,4.50
2022-10-30T17:12:17.849Z,5.17
2022-10-30T17:14:54.701Z,6.50
2022-10-30T17:17:30.772Z,6.10
2022-10-30T17:20:00.111Z,4.70
2022-10-30T17:22:27.477Z,5.30
2022-10-30T17:24:54.361Z,4.60
2022-10-30T17:27:32.271Z,5.63
2022-10-30T17:29:59.027Z,7.83
2022-10-30T17:32:27.699Z,6.90
2022-10-30T17:35:14.587Z,7.43
2022-10-30T17:37:41.326Z,7.23
2022-10-30T17:40:08.324Z,4.97
2022-10-30T17:42:35.058Z,8.10
2022-10-30T17:45:01.654Z,8.47
2022-10-30T17:47:28.782Z,5.77
2022-10-30T17:49:55.297Z,5.70
2022-10-30T17:52:21.949Z,7.87
2022-10-30T17:54:49.043Z,6.50
2022-10-30T17:57:16.340Z,5.57
2022-10-30T17:59:43.531Z,9.03
2022-10-30T18:02:19.239Z,4.57
2022-10-30T18:04:47.619Z,6.90
2022-10-30T18:07:16.106Z,15.47
2022-10-30T18:09:43.848Z,16.37
2022-10-30T18:12:15.466Z,18.23
2022-10-30T18:14:43.061Z,15.13
2022-10-30T18:17:10.335Z,19.23
2022-10-30T18:19:36.876Z,22.27
2022-10-30T18:22:03.715Z,19.60
2022-10-30T18:24:30.348Z,27.87
2022-10-30T18:26:56.880Z,25.00
2022-10-30T18:29:23.551Z,25.73
2022-10-30T18:31:50.074Z,25.13
2022-10-30T18:34:20.970Z,20.93
2022-10-30T18:36:48.408Z,21.13
2022-10-30T18:39:15.034Z,21.17
2022-10-30T18:41:43.739Z,20.70
2022-10-30T18:44:18.094Z,16.10
2022-10-30T18:46:45.435Z,23.33
2022-10-30T18:49:12.393Z,19.80
2022-10-30T18:51:39.508Z,22.40
2022-10-30T18:54:15.784Z,25.83
2022-10-30T18:56:43.218Z,20.67
2022-10-30T18:59:10.013Z,20.53
2022-10-30T19:01:37.365Z,23.90
2022-10-30T19:04:09.273Z,19.03
2022-10-30T19:06:38.300Z,16.10
2022-10-30T19:09:04.872Z,20.93
2022-10-30T19:11:32.213Z,17.67
2022-10-30T19:13:59.224Z,21.57
2022-10-30T19:16:26.092Z,24.70
2022-10-30T19:18:53.145Z,19.27
2022-10-30T19:21:22.293Z,21.97
2022-10-30T19:23:49.162Z,20.80
2022-10-30T19:26:16.919Z,23.80
2022-10-30T19:28:44.349Z,18.87
2022-10-30T19:31:14.505Z,21.50
2022-10-30T19:33:41.453Z,18.20
2022-10-30T19:36:25.918Z,17.93
2022-10-30T19:38:52.741Z,22.80
2022-10-30T19:41:19.418Z,21.00
2022-10-30T19:43:45.998Z,15.83
2022-10-30T19:46:14.546Z,19.47
2022-10-30T19:48:56.659Z,18.83
2022-10-30T19:51:23.634Z,16.87
2022-10-30T19:53:52.573Z,20.00
2022-10-30T19:56:20.239Z,16.10
2022-10-30T19:58:46.940Z,17.67
2022-10-30T20:01:14.193Z,17.13
2022-10-30T20:03:40.907Z,17.37
2022-10-30T20:06:07.621Z,19.10
2022-10-30T20:08:34.243Z,17.60
2022-10-30T20:11:01.829Z,20.30
2022-10-30T20:13:29.454Z,16.63
2022-10-30T20:15:58.549Z,18.23
2022-10-30T20:18:30.048Z,19.60
2022-10-30T20:20:59.075Z,17.40
2022-10-30T20:23:25.983Z,13.00
2022-10-30T20:26:00.433Z,16.40
2022-10-30T20:28:38.390Z,15.40
2022-10-30T20:31:05.883Z,15.10
2022-10-30T20:33:32.554Z,17.53
2022-10-30T20:35:59.175Z,15.03
2022-10-30T20:38:29.107Z,14.80
2022-10-30T20:40:57.587Z,15.00
2022-10-30T20:43:36.311Z,16.10
2022-10-30T20:46:04.492Z,13.60
2022-10-30T20:48:31.210Z,15.93
2022-10-30T20:50:59.874Z,15.93
2022-10-30T20:53:27.623Z,15.50
2022-10-30T20:55:54.183Z,13.20
2022-10-30T20:58:21.009Z,15.43
2022-10-30T21:00:47.728Z,13.47
2022-10-30T21:03:14.802Z,13.73
2022-10-30T21:05:44.797Z,16.37
2022-10-30T21:08:15.178Z,16.13
2022-10-30T21:10:42.336Z,14.63
2022-10-30T21:13:10.139Z,14.60
2022-10-30T21:15:42.352Z,15.60
2022-10-30T21:18:10.970Z,11.80
2022-10-30T21:20:38.111Z,17.50
2022-10-30T21:23:05.804Z,13.53
2022-10-30T21:25:32.774Z,17.43
2022-10-30T21:27:59.725Z,14.77
2022-10-30T21:30:26.562Z,12.20
2022-10-30T21:32:53.182Z,13.90
2022-10-30T21:35:20.156Z,13.37
2022-10-30T21:37:46.972Z,15.07
2022-10-30T21:40:13.793Z,10.67
2022-10-30T21:42:40.448Z,16.30
2022-10-30T21:45:08.072Z,14.43
2022-10-30T21:47:34.604Z,11.40
2022-10-30T21:50:01.760Z,11.97
2022-10-30T21:52:30.281Z,17.30
2022-10-30T21:54:56.806Z,12.20
2022-10-30T21:57:23.382Z,12.63
2022-10-30T21:59:49.945Z,13.77
2022-10-30T22:02:16.535Z,14.17
2022-10-30T22:04:43.192Z,12.23
2022-10-30T22:07:09.720Z,13.63
2022-10-30T22:09:37.641Z,14.90
2022-10-30T22:12:04.356Z,18.00
2022-10-30T22:14:30.919Z,13.40
2022-10-30T22:16:57.469Z,12.90
2022-10-30T22:19:24.012Z,11.20
2022-10-30T22:21:50.564Z,9.77
2022-10-30T22:24:17.765Z,15.30
2022-10-30T22:26:44.391Z,12.17
2022-10-30T22:29:11.490Z,12.10
2022-10-30T22:31:38.024Z,14.33
2022-10-30T22:34:04.582Z,11.80
2022-10-30T22:36:33.094Z,10.77
2022-10-30T22:39:01.913Z,15.03
2022-10-30T22:41:32.877Z,14.10
2022-10-30T22:44:07.755Z,11.13
2022-10-30T22:46:35.444Z,9.70
2022-10-30T22:49:02.159Z,11.60
2022-10-30T22:51:32.039Z,12.77
2022-10-30T22:54:01.403Z,10.17
2022-10-30T22:56:30.588Z,10.27
2022-10-30T22:58:57.685Z,11.87
2022-10-30T23:01:26.579Z,12.63
2022-10-30T23:03:55.832Z,12.97
2022-10-30T23:06:24.368Z,11.03
2022-10-30T23:08:55.317Z,10.97
2022-10-30T23:11:22.523Z,10.50
2022-10-30T23:13:49.323Z,12.83
2022-10-30T23:16:18.559Z,11.37
2022-10-30T23:18:45.963Z,11.53
2022-10-30T23:21:15.108Z,13.70
2022-10-30T23:23:42.876Z,12.43
2022-10-30T23:26:29.784Z,10.40
2022-10-30T23:28:57.785Z,10.47
2022-10-30T23:31:34.680Z,13.47
2022-10-30T23:34:02.943Z,12.40
2022-10-30T23:36:29.720Z,16.00
2022-10-30T23:38:58.524Z,9.70
2022-10-30T23:41:27.393Z,9.87
2022-10-30T23:43:55.764Z,11.00
2022-10-30T23:46:23.082Z,9.23
2022-10-30T23:48:49.836Z,12.50
2022-10-30T23:51:16.786Z,10.63
2022-10-30T23:53:43.566Z,10.23
2022-10-30T23:56:10.261Z,11.57
2022-10-30T23:58:36.857Z,10.70
